Time;durP1;ratioP1;P1;durP2;ratioP2;P2;SDS_P1;SDS_P2;PMS_P1;PMS_P2;Temp;Humidity;BMP_temperature;BMP_pressure;BME280_temperature;BME280_humidity;BME280_pressure;Samples;Min_cycle;Max_cycle;Signal;HPM_P1;HPM_P2
2022/12/23 00:01:19;;;;;;;18.37;9.97;;;;;;;4.05;87.82;94339.56;5091318;28;20300;-53
2022/12/23 00:03:45;;;;;;;20.27;9.70;;;;;;;3.97;88.87;94322.47;5091693;28;20656;-54
2022/12/23 00:06:12;;;;;;;16.17;9.33;;;;;;;3.86;88.37;94321.50;5091263;28;20216;-55
2022/12/23 00:08:38;;;;;;;19.40;9.43;;;;;;;3.90;87.90;94335.53;5091432;28;20180;-55
2022/12/23 00:11:09;;;;;;;19.80;10.00;;;;;;;3.74;89.29;94313.06;5091286;28;20567;-54
2022/12/23 00:16:18;;;;;;;20.17;11.60;;;;;;;3.90;89.80;94307.88;5076260;28;20197;-55
2022/12/23 00:18:44;;;;;;;32.87;16.23;;;;;;;4.08;88.92;94335.13;5091645;28;20188;-56
2022/12/23 00:21:15;;;;;;;33.47;17.80;;;;;;;3.97;88.84;94336.72;5091107;28;20208;-55
2022/12/23 00:23:43;;;;;;;33.13;19.20;;;;;;;3.98;89.91;94319.03;5090646;28;20320;-57
2022/12/23 00:26:20;;;;;;;39.90;20.27;;;;;;;4.06;89.83;94323.59;5091121;28;20218;-53
2022/12/23 00:28:46;;;;;;;37.20;19.00;;;;;;;4.01;88.76;94328.91;5091260;28;20190;-55
2022/12/23 00:31:12;;;;;;;37.07;18.43;;;;;;;4.16;88.08;94353.03;5090944;28;20212;-55
2022/12/23 00:33:40;;;;;;;32.30;16.57;;;;;;;4.17;87.47;94369.75;5091283;28;20661;-56
2022/12/23 00:36:26;;;;;;;33.60;16.93;;;;;;;4.16;87.31;94365.63;5090956;28;20215;-57
2022/12/23 00:44:19;;;;;;;33.37;17.57;;;;;;;4.11;88.24;94349.22;5091382;28;20280;-53
2022/12/23 00:46:45;;;;;;;34.57;16.10;;;;;;;4.10;88.41;94345.13;5073212;28;20192;-54
2022/12/23 00:51:57;;;;;;;28.33;16.13;;;;;;;4.14;87.77;94338.97;5091214;28;20675;-56
2022/12/23 00:54:23;;;;;;;28.13;13.13;;;;;;;4.20;86.51;94358.69;5090759;28;20215;-57
2022/12/23 00:56:48;;;;;;;24.53;13.17;;;;;;;4.20;86.90;94361.22;5072653;28;20281;-56
2022/12/23 00:59:14;;;;;;;23.50;11.70;;;;;;;4.09;87.32;94353.53;5091090;28;20550;-55
2022/12/23 01:07:08;;;;;;;22.10;11.77;;;;;;;4.00;88.21;94327.28;5090617;28;20248;-56
2022/12/23 01:09:33;;;;;;;23.37;12.13;;;;;;;3.95;88.69;94311.69;5090511;28;20223;-54
2022/12/23 01:11:59;;;;;;;28.63;13.90;;;;;;;3.54;92.68;94273.31;5090472;28;20195;-55
2022/12/23 01:14:25;;;;;;;25.53;12.63;;;;;;;3.49;94.49;94249.41;5090477;28;20222;-54
2022/12/23 01:16:51;;;;;;;30.37;13.97;;;;;;;3.56;92.96;94270.69;5090440;28;20580;-56
2022/12/23 01:19:16;;;;;;;32.97;16.40;;;;;;;3.07;97.89;94208.50;5090816;28;20210;-56
2022/12/23 01:21:41;;;;;;;29.60;15.97;;;;;;;3.57;94.14;94272.31;5090253;28;20204;-56
2022/12/23 01:24:08;;;;;;;31.47;15.83;;;;;;;3.61;95.00;94256.16;5090674;28;20197;-54
2022/12/23 01:26:33;;;;;;;29.97;18.17;;;;;;;3.56;96.43;94233.81;5090206;28;20195;-55
2022/12/23 01:28:59;;;;;;;41.43;21.57;;;;;;;3.45;97.84;94233.72;5089972;28;20271;-56
2022/12/23 01:31:26;;;;;;;42.20;21.43;;;;;;;3.35;98.75;94230.97;5090306;28;20188;-55
2022/12/23 01:33:52;;;;;;;36.30;21.40;;;;;;;3.32;98.37;94233.69;5091520;28;20653;-54
2022/12/23 01:36:18;;;;;;;36.90;20.37;;;;;;;3.63;97.06;94264.41;5093676;28;20657;-54
2022/12/23 01:38:44;;;;;;;36.63;20.40;;;;;;;3.55;98.00;94243.97;5093769;28;20197;-55
2022/12/23 01:44:47;;;;;;;44.47;21.23;;;;;;;3.95;95.71;94274.00;5094486;28;20278;-54
2022/12/23 01:47:19;;;;;;;38.23;21.97;;;;;;;3.98;94.47;94288.06;5093541;28;20258;-55
2022/12/23 01:49:45;;;;;;;39.07;21.20;;;;;;;3.88;97.65;94255.16;5093503;28;20293;-56
2022/12/23 01:52:12;;;;;;;45.10;25.23;;;;;;;3.86;97.63;94259.47;5093664;28;20183;-54
2022/12/23 01:54:38;;;;;;;39.83;24.70;;;;;;;4.20;95.76;94280.72;5093484;28;20210;-52
2022/12/23 01:57:04;;;;;;;41.50;23.13;;;;;;;4.12;96.35;94270.38;5075344;28;20191;-54
2022/12/23 02:04:59;;;;;;;50.70;23.77;;;;;;;4.28;95.08;94276.00;5093643;28;20590;-56
2022/12/23 02:10:09;;;;;;;41.73;22.40;;;;;;;4.14;93.51;94264.31;5093502;28;20211;-54
2022/12/23 02:13:24;;;;;;;45.90;22.03;;;;;;;3.94;94.86;94252.25;5093372;28;20638;-54
2022/12/23 02:16:17;;;;;;;40.83;22.77;;;;;;;3.47;96.58;94166.59;5041612;28;20229;-53
2022/12/23 02:19:04;;;;;;;39.50;19.83;;;;;;;3.97;95.13;94244.53;5093261;28;20227;-53
2022/12/23 02:22:17;;;;;;;35.87;18.47;;;;;;;3.93;95.47;94237.28;5093056;28;20215;-56
2022/12/23 02:25:16;;;;;;;34.30;16.53;;;;;;;4.22;92.69;94273.88;5091278;22;20234;-54
2022/12/23 02:27:56;;;;;;;26.63;16.53;;;;;;;3.74;96.14;94229.31;5092737;28;20184;-52
2022/12/23 02:30:44;;;;;;;35.93;19.87;;;;;;;3.46;100.00;94159.16;5092618;28;20590;-53
2022/12/23 02:33:39;;;;;;;34.80;18.60;;;;;;;3.99;96.85;94237.69;5092941;28;20603;-58
2022/12/23 02:36:07;;;;;;;33.07;18.33;;;;;;;4.11;95.14;94256.19;5093038;28;20211;-57
2022/12/23 02:39:08;;;;;;;35.43;17.67;;;;;;;4.21;95.58;94245.41;5092866;28;20184;-54
2022/12/23 02:42:01;;;;;;;39.30;19.57;;;;;;;3.73;97.74;94207.59;5039416;28;20240;-56
2022/12/23 02:44:38;;;;;;;33.00;18.67;;;;;;;4.15;96.31;94237.47;5045964;28;20273;-56
2022/12/23 02:47:14;;;;;;;36.57;20.53;;;;;;;3.70;100.00;94180.97;5092166;28;20171;-54
2022/12/23 02:49:46;;;;;;;44.90;25.90;;;;;;;4.06;97.48;94240.59;5093024;28;20592;-55
2022/12/23 02:52:13;;;;;;;49.83;24.83;;;;;;;3.21;100.00;94140.66;5075121;28;20182;-52
2022/12/23 02:54:45;;;;;;;53.37;29.40;;;;;;;3.54;100.00;94187.09;5092522;28;20291;-56
2022/12/23 02:57:15;;;;;;;52.00;26.43;;;;;;;3.89;98.98;94218.25;5092486;28;20180;-56
2022/12/23 02:59:47;;;;;;;61.57;29.77;;;;;;;3.87;100.00;94205.00;5092770;28;20284;-56
2022/12/23 03:02:12;;;;;;;61.27;30.70;;;;;;;3.60;99.14;94232.72;5092273;28;20686;-53
2022/12/23 03:04:39;;;;;;;65.57;28.80;;;;;;;3.43;99.75;94218.72;5092579;28;20269;-55
2022/12/23 03:07:05;;;;;;;60.70;30.17;;;;;;;2.80;100.00;94176.81;5092250;28;20188;-55
2022/12/23 03:09:56;;;;;;;58.07;29.53;;;;;;;3.07;98.91;94248.69;5092108;28;20212;-56
2022/12/23 03:12:46;;;;;;;52.23;25.77;;;;;;;3.17;99.47;94232.13;5092153;28;20659;-57
2022/12/23 03:15:14;;;;;;;54.10;27.20;;;;;;;3.17;100.00;94224.59;5092317;28;20211;-54
2022/12/23 03:18:18;;;;;;;53.07;27.33;;;;;;;3.11;99.82;94222.47;5092296;28;20186;-54
2022/12/23 03:21:08;;;;;;;50.17;24.23;;;;;;;3.28;100.00;94236.50;4990555;28;20211;-54
2022/12/23 03:23:51;;;;;;;45.73;22.40;;;;;;;3.52;96.67;94271.78;5089289;28;20287;-55
2022/12/23 03:26:42;;;;;;;41.17;22.23;;;;;;;3.54;95.57;94278.34;5092191;28;20195;-56
2022/12/23 03:29:13;;;;;;;41.07;22.10;;;;;;;3.64;94.07;94304.50;5092066;28;20283;-57
2022/12/23 03:31:40;;;;;;;44.97;23.37;;;;;;;3.49;94.57;94277.84;5091790;28;20188;-53
2022/12/23 03:34:12;;;;;;;45.27;22.57;;;;;;;3.12;98.04;94246.69;5092239;28;20203;-55
2022/12/23 03:36:41;;;;;;;46.63;23.07;;;;;;;3.04;95.50;94240.53;5091816;28;20240;-56
2022/12/23 03:39:13;;;;;;;38.83;21.47;;;;;;;3.07;99.05;94221.06;5073765;28;20697;-57
2022/12/23 03:41:43;;;;;;;40.40;21.20;;;;;;;3.18;96.52;94256.34;5091963;28;20208;-53
2022/12/23 03:44:18;;;;;;;38.17;20.97;;;;;;;3.06;100.00;94221.16;5091772;28;20247;-55
2022/12/23 03:46:53;;;;;;;43.67;19.97;;;;;;;3.34;96.40;94271.25;5091668;28;20186;-57
2022/12/23 03:49:29;;;;;;;40.30;20.03;;;;;;;3.28;97.07;94262.41;5091667;28;20692;-53
2022/12/23 03:52:15;;;;;;;37.00;20.70;;;;;;;3.40;95.11;94301.84;5091566;28;20670;-53
2022/12/23 03:54:49;;;;;;;45.47;21.47;;;;;;;3.40;95.41;94296.81;5091898;28;20706;-53
2022/12/23 03:57:15;;;;;;;38.67;20.07;;;;;;;3.57;94.32;94320.88;5090557;28;20316;-55
2022/12/23 03:59:44;;;;;;;35.20;19.53;;;;;;;3.57;93.10;94318.38;5091589;28;20682;-55
2022/12/23 04:02:16;;;;;;;44.07;20.07;;;;;;;3.32;94.10;94305.72;5091300;28;20220;-55
2022/12/23 04:05:17;;;;;;;32.20;19.27;;;;;;;3.27;94.71;94300.19;5091471;28;20226;-54
2022/12/23 04:07:46;;;;;;;33.80;17.70;;;;;;;3.20;96.43;94272.13;5090776;28;20191;-56
2022/12/23 04:10:13;;;;;;;34.90;20.27;;;;;;;3.03;95.81;94264.84;5091676;28;20215;-55
2022/12/23 04:12:39;;;;;;;39.37;19.20;;;;;;;3.08;97.55;94262.84;5091201;28;20576;-54
2022/12/23 04:15:05;;;;;;;40.13;20.93;;;;;;;3.02;98.09;94247.38;5091098;28;20220;-53
2022/12/23 04:17:31;;;;;;;42.13;21.20;;;;;;;2.91;99.97;94217.91;5091263;28;20197;-53
2022/12/23 04:19:56;;;;;;;44.67;21.87;;;;;;;2.58;100.00;94179.03;5091276;28;20215;-54
2022/12/23 04:22:22;;;;;;;46.07;22.13;;;;;;;2.90;100.00;94211.28;5091127;28;20204;-54
2022/12/23 04:24:47;;;;;;;39.77;20.37;;;;;;;2.98;100.00;94226.69;5091014;28;20212;-56
2022/12/23 04:27:15;;;;;;;38.03;20.40;;;;;;;3.10;100.00;94240.16;5091189;28;20268;-56
2022/12/23 04:29:41;;;;;;;43.60;21.07;;;;;;;3.10;100.00;94238.47;5091357;28;20296;-53
2022/12/23 04:32:07;;;;;;;42.70;22.30;;;;;;;3.30;99.87;94253.06;5091138;28;20189;-56
2022/12/23 04:34:33;;;;;;;44.23;21.10;;;;;;;3.42;98.07;94264.88;5091561;28;20219;-55
2022/12/23 04:36:59;;;;;;;38.50;21.17;;;;;;;3.42;98.11;94259.84;5091146;28;20181;-55
2022/12/23 04:39:24;;;;;;;44.63;22.20;;;;;;;3.56;98.53;94261.47;5091126;28;20222;-54
2022/12/23 04:41:50;;;;;;;44.43;20.30;;;;;;;3.65;97.64;94265.09;5090985;28;20261;-56
2022/12/23 04:44:15;;;;;;;36.33;21.70;;;;;;;3.59;97.95;94246.22;5090995;28;20214;-55
2022/12/23 04:46:41;;;;;;;40.33;21.23;;;;;;;3.51;98.11;94257.63;5090978;28;20701;-56
2022/12/23 04:49:06;;;;;;;37.13;18.73;;;;;;;3.47;98.53;94247.00;5090819;28;20199;-54
2022/12/23 04:51:32;;;;;;;35.53;19.90;;;;;;;3.45;100.00;94223.69;5090975;28;20196;-54
2022/12/23 04:53:57;;;;;;;38.50;19.53;;;;;;;3.51;100.00;94217.44;5091064;28;20238;-56
2022/12/23 04:56:22;;;;;;;37.13;20.07;;;;;;;3.78;99.21;94256.66;5072982;28;20690;-58
2022/12/23 04:58:48;;;;;;;40.70;20.73;;;;;;;3.72;99.94;94246.19;5090955;28;20275;-56
2022/12/23 05:01:13;;;;;;;33.90;18.27;;;;;;;3.37;100.00;94221.63;5090918;28;20208;-56
2022/12/23 05:03:39;;;;;;;41.07;20.93;;;;;;;3.10;100.00;94203.31;5091032;28;20646;-55
2022/12/23 05:06:05;;;;;;;42.53;20.50;;;;;;;3.30;100.00;94227.16;5090500;28;20224;-55
2022/12/23 05:08:31;;;;;;;39.50;19.77;;;;;;;3.50;100.00;94239.25;5091345;28;20223;-58
2022/12/23 05:10:57;;;;;;;38.67;20.03;;;;;;;3.71;100.00;94262.19;5093991;28;20204;-54
2022/12/23 05:13:22;;;;;;;36.17;20.63;;;;;;;3.97;99.79;94281.41;5093938;28;20174;-53
2022/12/23 05:15:49;;;;;;;35.60;18.97;;;;;;;3.79;100.00;94257.47;5093976;28;20210;-54
2022/12/23 05:18:15;;;;;;;36.03;20.03;;;;;;;3.32;100.00;94237.91;5094004;28;20219;-57
2022/12/23 05:20:42;;;;;;;42.10;20.77;;;;;;;3.52;100.00;94244.97;5093790;28;20309;-53
2022/12/23 05:23:08;;;;;;;39.53;22.00;;;;;;;3.12;100.00;94234.16;5093654;28;20176;-53
2022/12/23 05:25:41;;;;;;;41.43;22.97;;;;;;;2.82;100.00;94200.09;5075556;28;20288;-54
2022/12/23 05:28:08;;;;;;;50.17;22.90;;;;;;;2.60;100.00;94233.25;5093671;28;20224;-53
2022/12/23 05:30:33;;;;;;;44.10;21.90;;;;;;;2.94;100.00;94249.53;5093568;28;20260;-54
2022/12/23 05:32:59;;;;;;;42.57;21.53;;;;;;;2.96;100.00;94260.28;5093771;28;20178;-55
2022/12/23 05:35:26;;;;;;;45.33;23.47;;;;;;;2.70;100.00;94256.88;5075297;28;20207;-55
2022/12/23 05:37:52;;;;;;;43.37;23.87;;;;;;;2.85;100.00;94267.69;5093423;28;20271;-56
2022/12/23 05:40:18;;;;;;;44.33;23.10;;;;;;;3.18;100.00;94273.94;5094039;28;20277;-53
2022/12/23 05:42:44;;;;;;;43.30;23.53;;;;;;;3.27;100.00;94270.06;5093669;28;20204;-58
2022/12/23 05:45:09;;;;;;;53.30;26.40;;;;;;;3.43;100.00;94288.28;5094023;28;20726;-54
2022/12/23 05:47:35;;;;;;;57.10;26.73;;;;;;;3.49;100.00;94290.41;5093483;28;20277;-55
2022/12/23 05:50:02;;;;;;;55.03;31.30;;;;;;;3.74;100.00;94302.19;5093369;28;20204;-55
2022/12/23 05:52:27;;;;;;;60.00;31.73;;;;;;;3.73;100.00;94298.09;5093510;28;20186;-53
2022/12/23 05:54:53;;;;;;;50.73;28.63;;;;;;;3.51;100.00;94278.56;5093203;28;20209;-60
2022/12/23 05:57:18;;;;;;;54.23;28.00;;;;;;;3.67;100.00;94298.47;5093350;28;20226;-57
2022/12/23 05:59:44;;;;;;;60.30;32.97;;;;;;;3.90;100.00;94311.19;5093666;28;20566;-54
2022/12/23 06:02:09;;;;;;;55.27;31.33;;;;;;;3.87;100.00;94303.84;5093292;28;20230;-54
2022/12/23 06:04:35;;;;;;;54.03;29.43;;;;;;;3.86;100.00;94288.84;5093338;28;20300;-56
2022/12/23 06:07:00;;;;;;;57.63;30.23;;;;;;;3.96;100.00;94294.91;5093244;28;20192;-57
2022/12/23 06:09:25;;;;;;;59.13;30.73;;;;;;;4.07;100.00;94305.88;5093776;28;20214;-54
2022/12/23 06:11:51;;;;;;;60.63;29.60;;;;;;;4.37;100.00;94315.63;5074929;28;20649;-53
2022/12/23 06:14:16;;;;;;;51.13;27.80;;;;;;;4.45;100.00;94332.72;5093129;28;20218;-56
2022/12/23 06:16:41;;;;;;;49.53;25.30;;;;;;;4.46;100.00;94334.34;5093037;28;20230;-58
2022/12/23 06:19:07;;;;;;;49.97;26.13;;;;;;;4.60;100.00;94360.22;5074890;28;20720;-57
2022/12/23 06:21:33;;;;;;;48.87;24.67;;;;;;;4.72;99.62;94373.69;5092000;28;20660;-54
2022/12/23 06:23:58;;;;;;;40.23;22.73;;;;;;;4.88;97.73;94380.13;5092973;28;20222;-55
2022/12/23 06:26:29;;;;;;;43.57;19.97;;;;;;;5.01;96.51;94401.03;5092941;28;20182;-56
2022/12/23 06:28:55;;;;;;;39.33;18.67;;;;;;;4.86;95.74;94412.16;5092905;28;20237;-57
2022/12/23 06:31:20;;;;;;;42.57;21.93;;;;;;;4.75;100.00;94177.09;5092876;28;20187;-56
2022/12/23 06:33:46;;;;;;;52.27;21.80;;;;;;;4.77;100.00;94377.50;5092960;28;20656;-57
2022/12/23 06:36:11;;;;;;;47.63;23.93;;;;;;;4.81;97.06;94411.66;5092576;28;20202;-55
2022/12/23 06:38:36;;;;;;;59.20;29.17;;;;;;;4.61;98.21;94384.47;5092782;28;20209;-54
2022/12/23 06:41:02;;;;;;;51.87;28.90;;;;;;;4.39;99.73;94354.06;5092431;28;20617;-55
2022/12/23 06:43:28;;;;;;;56.67;29.67;;;;;;;4.28;100.00;94326.31;5092609;28;20206;-54
2022/12/23 06:45:53;;;;;;;62.07;30.53;;;;;;;4.31;100.00;94345.41;5074417;28;20211;-57
2022/12/23 06:48:19;;;;;;;60.07;30.87;;;;;;;4.47;100.00;94351.84;5092536;28;20194;-58
2022/12/23 06:50:45;;;;;;;66.33;33.17;;;;;;;4.57;98.24;94369.66;5092556;28;20279;-53
2022/12/23 06:53:10;;;;;;;60.10;31.80;;;;;;;4.58;99.39;94354.47;5092544;28;20659;-55
2022/12/23 06:55:36;;;;;;;71.40;34.00;;;;;;;4.46;100.00;94327.63;5092301;28;20208;-54
2022/12/23 06:58:01;;;;;;;61.73;34.67;;;;;;;4.55;100.00;94352.16;5092452;28;20261;-54
2022/12/23 07:00:26;;;;;;;53.60;29.43;;;;;;;4.68;99.03;94373.09;5092070;28;20221;-53
2022/12/23 07:02:53;;;;;;;69.27;32.20;;;;;;;4.75;100.00;94351.63;5092208;28;20235;-55
2022/12/23 07:05:19;;;;;;;67.50;32.47;;;;;;;4.79;98.43;94380.72;5092015;28;20690;-54
2022/12/23 07:07:44;;;;;;;57.93;31.17;;;;;;;4.68;98.05;94387.38;5092125;28;20711;-55
2022/12/23 07:10:09;;;;;;;64.43;32.50;;;;;;;4.76;97.53;94385.16;5092044;28;20218;-55
2022/12/23 07:12:35;;;;;;;69.47;31.10;;;;;;;4.72;98.17;94376.22;5092216;28;20186;-57
2022/12/23 07:15:01;;;;;;;69.60;32.03;;;;;;;4.74;96.04;94414.69;5092395;28;20570;-57
2022/12/23 07:17:27;;;;;;;56.47;31.87;;;;;;;4.53;97.47;94381.66;5092236;28;20733;-56
2022/12/23 07:19:52;;;;;;;53.63;30.77;;;;;;;4.50;99.29;94364.25;5092362;28;20215;-57
2022/12/23 07:22:17;;;;;;;60.20;30.00;;;;;;;4.56;96.26;94399.06;5092010;28;20220;-57
2022/12/23 07:24:43;;;;;;;55.57;30.20;;;;;;;4.55;96.18;94409.22;5091783;28;20762;-57
2022/12/23 07:27:08;;;;;;;60.90;29.23;;;;;;;4.42;97.88;94374.00;5092120;28;20240;-55
2022/12/23 07:29:34;;;;;;;66.53;30.17;;;;;;;4.61;97.44;94376.91;5091817;28;20700;-54
2022/12/23 07:32:01;;;;;;;54.60;28.37;;;;;;;4.76;95.51;94408.63;5091621;28;20198;-55
2022/12/23 07:34:26;;;;;;;52.07;28.13;;;;;;;4.83;93.86;94434.19;5091628;28;20624;-55
2022/12/23 07:36:52;;;;;;;51.50;27.60;;;;;;;4.77;93.90;94432.09;5091774;28;20711;-56
2022/12/23 07:39:18;;;;;;;56.37;30.23;;;;;;;4.49;95.72;94409.63;5073823;28;20212;-54
2022/12/23 07:41:44;;;;;;;54.03;30.93;;;;;;;4.42;96.70;94389.09;5091620;28;20222;-55
2022/12/23 07:44:09;;;;;;;56.57;27.83;;;;;;;4.55;96.03;94419.28;5091694;28;20256;-56
2022/12/23 07:46:35;;;;;;;54.37;29.47;;;;;;;4.55;96.80;94399.97;5073675;28;20669;-54
2022/12/23 07:49:00;;;;;;;52.70;28.67;;;;;;;4.63;96.12;94407.81;5091585;28;20199;-57
2022/12/23 07:51:25;;;;;;;63.53;31.07;;;;;;;4.69;95.07;94426.75;5091583;28;20666;-56
2022/12/23 07:53:51;;;;;;;57.13;29.07;;;;;;;4.66;95.14;94425.25;5091330;28;20198;-53
2022/12/23 07:56:17;;;;;;;64.00;30.57;;;;;;;4.58;96.12;94409.03;5091896;28;20738;-54
2022/12/23 07:58:46;;;;;;;55.20;28.67;;;;;;;4.81;94.11;94451.94;5091669;28;20217;-54
2022/12/23 08:01:12;;;;;;;56.47;28.97;;;;;;;5.33;91.64;94494.66;5091495;28;20711;-54
2022/12/23 08:03:37;;;;;;;50.23;27.63;;;;;;;5.49;90.83;94507.81;5091620;28;20610;-55
2022/12/23 08:06:05;;;;;;;55.37;28.23;;;;;;;5.97;87.00;94556.66;5073292;28;20219;-55
2022/12/23 08:08:32;;;;;;;55.77;28.47;;;;;;;6.32;86.36;94569.38;5091363;28;20192;-56
2022/12/23 08:11:05;;;;;;;54.93;30.93;;;;;;;6.66;84.07;94609.03;5091412;28;20238;-54
2022/12/23 08:13:34;;;;;;;68.40;33.40;;;;;;;7.06;81.66;94655.03;5091541;28;20192;-54
2022/12/23 08:16:00;;;;;;;71.03;39.47;;;;;;;7.18;79.88;94672.66;5091489;28;20211;-57
2022/12/23 08:18:28;;;;;;;65.00;41.27;;;;;;;7.22;79.19;94678.28;5091468;28;20214;-56
2022/12/23 08:21:00;;;;;;;55.73;33.93;;;;;;;7.39;77.73;94685.50;5091159;28;20204;-57
2022/12/23 08:23:27;;;;;;;50.23;31.57;;;;;;;7.63;77.39;94686.25;5091167;28;20273;-57
2022/12/23 08:26:08;;;;;;;52.37;27.70;;;;;;;7.83;77.21;94698.25;5091118;28;20207;-54
2022/12/23 08:28:34;;;;;;;50.43;26.00;;;;;;;8.21;73.25;94754.47;5091254;28;20191;-54
2022/12/23 08:31:15;;;;;;;46.33;26.43;;;;;;;8.41;72.70;94745.41;5091020;28;20208;-57
2022/12/23 08:33:43;;;;;;;48.23;27.57;;;;;;;8.76;71.93;94760.50;5091267;28;20191;-56
2022/12/23 08:36:13;;;;;;;59.00;28.07;;;;;;;9.10;70.03;94795.84;5091022;28;20204;-58
2022/12/23 08:38:38;;;;;;;49.33;27.07;;;;;;;9.41;68.55;94809.50;5091390;28;20212;-56
2022/12/23 08:41:16;;;;;;;54.23;28.00;;;;;;;9.58;67.28;94825.94;5090939;28;20287;-54
2022/12/23 08:43:42;;;;;;;47.63;26.13;;;;;;;9.79;66.66;94829.34;5091866;28;20207;-57
2022/12/23 08:46:09;;;;;;;40.00;25.00;;;;;;;9.92;66.35;94819.81;5094597;28;20277;-56
2022/12/23 08:48:34;;;;;;;45.30;23.70;;;;;;;10.13;65.79;94841.00;5094501;28;20192;-55
2022/12/23 08:51:12;;;;;;;45.43;25.37;;;;;;;10.27;65.02;94837.34;5094274;28;20212;-54
2022/12/23 08:53:39;;;;;;;38.17;24.07;;;;;;;10.45;63.96;94863.81;5094559;28;20192;-58
2022/12/23 08:56:08;;;;;;;38.20;24.00;;;;;;;10.77;63.96;94854.38;5094675;28;20207;-54
2022/12/23 08:58:38;;;;;;;44.57;24.20;;;;;;;11.02;62.47;94873.50;5094334;28;20569;-57
2022/12/23 09:01:06;;;;;;;43.47;25.87;;;;;;;11.44;60.47;94914.00;5094227;28;20208;-56
2022/12/23 09:03:32;;;;;;;38.07;23.10;;;;;;;11.53;59.34;94928.50;5094581;28;20245;-54
2022/12/23 09:05:58;;;;;;;43.63;24.47;;;;;;;11.48;59.53;94912.00;5094097;28;20243;-59
2022/12/23 09:08:24;;;;;;;40.33;23.70;;;;;;;11.45;58.86;94919.91;5094265;28;20222;-57
2022/12/23 09:10:49;;;;;;;38.07;22.43;;;;;;;11.63;59.44;94888.63;5093913;28;20232;-56
2022/12/23 09:13:14;;;;;;;44.60;24.07;;;;;;;11.77;58.88;94897.66;5094044;28;20200;-55
2022/12/23 09:15:44;;;;;;;40.77;23.73;;;;;;;11.91;59.08;94896.47;5093946;28;20219;-55
2022/12/23 09:18:10;;;;;;;40.57;24.47;;;;;;;11.73;58.41;94909.03;5093979;28;20574;-56
2022/12/23 09:20:37;;;;;;;51.47;26.73;;;;;;;11.91;57.19;94934.69;5075812;28;20220;-57
2022/12/23 09:23:03;;;;;;;46.27;26.30;;;;;;;12.03;57.17;94933.63;5093709;28;20212;-56
2022/12/23 09:25:29;;;;;;;44.00;26.70;;;;;;;12.17;56.54;94946.78;5094143;28;20327;-58
2022/12/23 09:27:55;;;;;;;45.20;24.73;;;;;;;12.12;55.47;94961.66;5093762;28;20680;-57
2022/12/23 09:30:21;;;;;;;39.53;25.30;;;;;;;12.42;55.46;94953.91;5094219;28;20212;-56
2022/12/23 09:32:46;;;;;;;44.73;25.87;;;;;;;12.51;56.67;94929.38;5093962;28;20188;-54
2022/12/23 09:35:11;;;;;;;44.10;25.57;;;;;;;12.81;55.23;94952.16;5093828;28;20716;-55
2022/12/23 09:37:37;;;;;;;49.03;25.93;;;;;;;13.03;54.31;94972.28;5093669;28;20721;-55
2022/12/23 09:40:03;;;;;;;44.27;26.37;;;;;;;12.44;54.97;94943.59;5093649;28;20212;-55
2022/12/23 09:42:50;;;;;;;44.43;26.07;;;;;;;12.32;56.04;94914.09;5093411;28;20249;-55
2022/12/23 09:45:21;;;;;;;51.00;26.07;;;;;;;11.95;56.29;94867.25;5093505;28;20227;-57
2022/12/23 09:47:48;;;;;;;45.97;27.57;;;;;;;11.92;57.08;94860.66;5093489;28;20192;-54
2022/12/23 09:50:30;;;;;;;43.20;26.50;;;;;;;11.75;57.57;94846.03;5094018;28;20211;-56
2022/12/23 09:53:12;;;;;;;43.50;24.77;;;;;;;11.41;58.69;94804.00;5093877;28;20203;-54
2022/12/23 09:55:52;;;;;;;45.80;26.90;;;;;;;10.86;59.94;94765.44;5092265;28;20309;-58
2022/12/23 09:58:30;;;;;;;45.10;26.63;;;;;;;10.92;61.09;94746.31;5093650;28;20605;-55
2022/12/23 10:01:26;;;;;;;45.63;24.37;;;;;;;10.94;61.36;94729.19;5093255;28;20696;-55
2022/12/23 10:04:03;;;;;;;42.63;25.20;;;;;;;10.69;61.74;94716.91;5093135;28;20249;-57
2022/12/23 10:06:31;;;;;;;45.33;27.20;;;;;;;10.91;61.33;94729.41;5093287;28;20253;-54
2022/12/23 10:09:00;;;;;;;43.07;26.37;;;;;;;11.04;61.72;94730.00;5093017;28;20196;-56
2022/12/23 10:11:30;;;;;;;46.23;27.43;;;;;;;10.93;61.99;94722.47;5093200;28;20200;-57
2022/12/23 10:13:59;;;;;;;49.97;28.40;;;;;;;10.75;63.00;94684.16;5093360;28;20634;-56
2022/12/23 10:16:30;;;;;;;49.70;28.47;;;;;;;10.96;62.90;94687.41;5093075;28;20676;-56
2022/12/23 10:19:03;;;;;;;47.97;28.47;;;;;;;10.76;62.21;94695.13;5093067;28;20676;-57
2022/12/23 10:22:05;;;;;;;53.23;27.93;;;;;;;10.80;62.08;94704.91;5074785;28;20239;-55
2022/12/23 10:24:51;;;;;;;46.93;27.30;;;;;;;10.70;62.85;94682.94;4971960;28;20227;-56
2022/12/23 10:27:33;;;;;;;53.60;29.43;;;;;;;11.13;61.22;94734.28;5083965;28;20204;-56
2022/12/23 10:30:19;;;;;;;52.03;29.10;;;;;;;11.09;61.67;94715.13;5093019;28;20707;-54
2022/12/23 10:33:13;;;;;;;55.53;28.53;;;;;;;10.90;63.89;94644.72;5092847;28;20200;-56
2022/12/23 10:35:42;;;;;;;45.80;29.70;;;;;;;10.62;63.79;94642.13;5074572;28;20585;-57
2022/12/23 10:38:35;;;;;;;54.17;31.37;;;;;;;10.59;64.48;94614.41;5092801;28;20195;-57
2022/12/23 10:41:09;;;;;;;47.60;30.63;;;;;;;10.63;65.31;94597.94;5092634;28;20208;-55
2022/12/23 10:43:40;;;;;;;58.13;30.57;;;;;;;10.68;65.48;94585.66;5092601;28;20196;-57
2022/12/23 10:46:14;;;;;;;57.60;30.97;;;;;;;10.71;65.94;94580.28;5092524;28;20207;-55
2022/12/23 10:48:49;;;;;;;49.73;29.93;;;;;;;10.82;66.53;94562.38;5092300;28;20632;-57
2022/12/23 10:51:24;;;;;;;48.87;29.70;;;;;;;10.94;66.07;94581.66;5092871;28;20207;-57
2022/12/23 10:54:01;;;;;;;54.83;30.40;;;;;;;11.11;64.27;94603.88;5092521;28;20188;-57
2022/12/23 10:56:29;;;;;;;58.90;29.17;;;;;;;11.11;63.32;94648.88;5074356;28;20180;-54
2022/12/23 10:58:57;;;;;;;59.33;29.70;;;;;;;11.47;62.65;94648.97;5074168;28;20192;-55
2022/12/23 11:01:23;;;;;;;58.97;30.47;;;;;;;12.17;61.16;94711.53;5092286;28;20273;-57
2022/12/23 11:03:54;;;;;;;59.17;29.63;;;;;;;12.06;60.11;94739.72;5092585;28;20188;-55
2022/12/23 11:06:20;;;;;;;54.87;30.37;;;;;;;12.53;59.42;94754.88;5073716;28;20666;-58
2022/12/23 11:08:46;;;;;;;47.67;30.53;;;;;;;12.49;59.59;94743.38;5092281;28;20195;-57
2022/12/23 11:11:11;;;;;;;54.63;30.63;;;;;;;12.17;60.81;94706.41;5092115;28;20199;-58
2022/12/23 11:13:39;;;;;;;51.43;30.67;;;;;;;11.91;60.78;94705.41;5092124;28;20249;-58
2022/12/23 11:16:20;;;;;;;51.50;28.87;;;;;;;11.70;62.98;94635.06;5092152;28;20204;-58
2022/12/23 11:18:59;;;;;;;59.17;30.67;;;;;;;11.73;61.85;94667.91;5092156;28;20189;-56
2022/12/23 11:21:25;;;;;;;52.93;30.67;;;;;;;11.31;63.37;94614.88;5092020;28;20211;-56
2022/12/23 11:24:13;;;;;;;59.80;32.13;;;;;;;11.42;64.27;94584.97;5092178;28;20188;-56
2022/12/23 11:26:39;;;;;;;53.70;31.60;;;;;;;11.39;64.53;94582.69;5091884;28;20245;-58
2022/12/23 11:29:10;;;;;;;58.10;30.73;;;;;;;11.56;64.21;94596.47;5091962;28;20584;-55
2022/12/23 11:31:36;;;;;;;59.50;32.20;;;;;;;11.31;65.33;94569.06;5073845;28;20196;-57
2022/12/23 11:34:04;;;;;;;59.63;32.77;;;;;;;10.97;66.16;94535.59;5091860;28;20279;-58
2022/12/23 11:36:31;;;;;;;55.50;33.17;;;;;;;10.47;67.93;94494.28;5091914;28;20191;-56
2022/12/23 11:39:24;;;;;;;60.60;33.27;;;;;;;10.48;67.84;94488.25;5092040;28;20192;-57
2022/12/23 11:41:52;;;;;;;69.57;34.33;;;;;;;10.38;67.16;94517.13;5091634;28;20231;-54
2022/12/23 11:44:26;;;;;;;64.80;33.73;;;;;;;10.68;67.33;94530.53;5092004;28;20238;-54
2022/12/23 11:46:53;;;;;;;56.00;33.83;;;;;;;10.78;67.68;94520.38;5091545;28;20196;-54
2022/12/23 11:49:22;;;;;;;59.13;34.80;;;;;;;10.80;68.71;94505.78;5092139;28;20211;-54
2022/12/23 11:51:59;;;;;;;56.10;33.30;;;;;;;10.88;68.26;94506.72;5091762;28;20196;-56
2022/12/23 11:54:25;;;;;;;59.37;34.07;;;;;;;10.62;68.51;94498.03;5091604;28;20277;-58
2022/12/23 11:56:51;;;;;;;53.63;32.57;;;;;;;10.61;68.09;94509.13;5091786;28;20342;-55
2022/12/23 11:59:34;;;;;;;63.90;32.43;;;;;;;10.27;69.51;94468.97;5091520;28;20240;-58
2022/12/23 12:02:03;;;;;;;58.57;33.30;;;;;;;10.19;68.68;94489.97;5091764;28;20208;-56
2022/12/23 12:04:34;;;;;;;64.87;32.67;;;;;;;9.76;71.07;94424.22;5091782;28;20212;-54